Casement, Ireland

8:34 PM IST on September 02, 2015 (GMT +0100)
Lucan Co Dubklin, Ireland | | Change Station
CLOSE
Current Station
Personal Weather Station
Location: Lucan, DUBLIN
Elevation: 154 ft
Nearby Weather Stations

Elev 154 ft 53.35 °N, 6.45 °W | Updated 55 seconds ago

Mostly Cloudy
Mostly Cloudy
52.9 °F
Feels Like 52.9 °F
N
1.7
Wind Variable Wind from South

Today
High -- | Low -- °F
--% Chance of Precip.
Yesterday
High -- | Low -- °F
Precip. -- in
6:36 AM 8:13 PM
Waning Gibbous, 78% visible
Pressure 30.12 in
Visibility 6.2 miles
Clouds Few 2500 ft
Mostly Cloudy 5000 ft
Dew Point 48 °F
Humidity 85%
Rainfall 0.01 in
Snow Depth Not available.
UV 0 out of 12
Pollen Not available.
Air Quality Not available.
Flu Activity Not available.
METAR EIDW 021930Z 31007KT 9999 FEW025 BKN050 11/08 Q1020 NOSIG
Pressure 30.12 in
Visibility 6.2 miles
Clouds Few 2500 ft
Mostly Cloudy 5000 ft
Dew Point 48 °F
Humidity 85%
Rainfall 0.01 in
Snow Depth Not available.
UV 0 out of 12
Pollen Not available.
Air Quality Not available.
Flu Activity Not available.
METAR EIDW 021930Z 31007KT 9999 FEW025 BKN050 11/08 Q1020 NOSIG

10-Day Weather Forecast

×

Almanac

Astronomy

Sep. 02, 2015 Rise Set
Actual Time
Civil Twilight
Nautical Twilight
Astronomical Twilight
Moon
Length of Visible Light
Length of Day
Tomorrow will be .
, % of the Moon is Illuminated

Today's Extremes

Country Highs Country Lows

Community

WunderPhotos

Upload Photos

1,851,799 photos uploaded!

WunderBlogs® & News

Nearby

Air Quality

  Air Quality AQ Index Pollutant
Not available.

Snow Depth

Station Depth Elevation

Earthquake Activity

City Distance Mag. Time & Date
Minimum magnitude displayed is 2.5.

Coastal Water Temperatures

Place Temperature

Stations

Nearby Weather Stations

Station Location Temp. Windchill Dew Point Humidity Wind Precip. Elev Updated Type